31526 UKDR-OMAA
Flight info
| Callsign | 31526 |
|---|---|
| Flight time | N/A |
| Altitude | FL210 |
| Route | DCT KR DCT LTCO DCT OICS DCT KRD DCT JAM DCT |
| Aircraft | B748/H-S/N |
Departure
| Time | 2026-04-24 14:56 |
|---|---|
| Airport | Kryvyi Rih International Airport (UKDR) |
Arrival
| Time | N/A |
|---|---|
| Airport | Zayed International Airport (OMAA) |
| Time | Latitude | Longitude | Altitude | Speed | Heading |
|---|---|---|---|---|---|
| 2026-04-24 14:51 | 48.03357 | 33.20660 | 421 ft | 0 kts | 5° |
| 2026-04-24 14:52 | 48.03358 | 33.20660 | 421 ft | 0 kts | 5° |
| 2026-04-24 14:54 | 48.03353 | 33.20660 | 421 ft | 2 kts | 5° |
| 2026-04-24 14:54 | 48.03336 | 33.20657 | 421 ft | 3 kts | 5° |
| 2026-04-24 14:55 | 48.03323 | 33.20655 | 421 ft | 3 kts | 5° |
| 2026-04-24 14:55 | 48.03315 | 33.20654 | 421 ft | 3 kts | 5° |
| 2026-04-24 14:55 | 48.03361 | 33.20661 | 421 ft | 10 kts | 5° |
| 2026-04-24 14:55 | 48.03555 | 33.20688 | 421 ft | 57 kts | 5° |
| 2026-04-24 14:56 | 48.04229 | 33.20781 | 421 ft | 134 kts | 5° |
| 2026-04-24 14:56 | 48.05268 | 33.20925 | 492 ft | 157 kts | 5° |
| 2026-04-24 14:56 | 48.06404 | 33.21082 | 812 ft | 173 kts | 5° |
| 2026-04-24 14:56 | 48.07655 | 33.21268 | 1151 ft | 187 kts | 5° |
| 2026-04-24 14:57 | 48.08964 | 33.21493 | 1463 ft | 192 kts | 5° |
| 2026-04-24 14:57 | 48.10305 | 33.21747 | 1769 ft | 196 kts | 5° |
| 2026-04-24 14:57 | 48.11669 | 33.22009 | 2078 ft | 198 kts | 5° |
| 2026-04-24 14:57 | 48.13035 | 33.22302 | 2387 ft | 199 kts | 5° |
| 2026-04-24 14:58 | 48.14451 | 33.22621 | 2712 ft | 221 kts | 5° |
| 2026-04-24 14:58 | 48.16142 | 33.22979 | 3086 ft | 269 kts | 5° |
| 2026-04-24 14:58 | 48.18129 | 33.23378 | 3425 ft | 305 kts | 5° |
| 2026-04-24 14:58 | 48.20318 | 33.23804 | 3743 ft | 328 kts | 5° |
| 2026-04-24 14:59 | 48.22629 | 33.24252 | 4051 ft | 340 kts | 5° |
| 2026-04-24 14:59 | 48.24988 | 33.24725 | 4354 ft | 343 kts | 6° |
| 2026-04-24 14:59 | 48.27326 | 33.25210 | 4645 ft | 336 kts | 6° |
| 2026-04-24 14:59 | 48.29643 | 33.25698 | 4943 ft | 341 kts | 6° |
| 2026-04-24 15:00 | 48.32032 | 33.26212 | 5248 ft | 351 kts | 6° |
| 2026-04-24 15:00 | 48.34465 | 33.26740 | 5551 ft | 357 kts | 6° |
| 2026-04-24 15:00 | 48.36940 | 33.27278 | 5848 ft | 364 kts | 6° |
| 2026-04-24 15:00 | 48.39778 | 33.27873 | 6029 ft | 479 kts | 6° |
| 2026-04-24 15:01 | 48.43514 | 33.28727 | 6181 ft | 587 kts | 9° |
| 2026-04-24 15:01 | 48.47540 | 33.30530 | 6310 ft | 613 kts | 19° |
| 2026-04-24 15:01 | 48.51384 | 33.33342 | 6436 ft | 620 kts | 28° |
| 2026-04-24 15:01 | 48.54917 | 33.37097 | 6561 ft | 624 kts | 38° |
| 2026-04-24 15:02 | 48.58018 | 33.41682 | 6687 ft | 626 kts | 47° |
| 2026-04-24 15:02 | 48.60602 | 33.46986 | 6813 ft | 628 kts | 57° |
| 2026-04-24 15:02 | 48.62592 | 33.52857 | 6938 ft | 629 kts | 66° |
| 2026-04-24 15:02 | 48.63937 | 33.59152 | 7064 ft | 630 kts | 76° |
| 2026-04-24 15:03 | 48.64456 | 33.63502 | 7148 ft | 631 kts | 82° |
| 2026-04-24 15:03 | 48.64560 | 33.72311 | 7315 ft | 631 kts | 94° |
| 2026-04-24 15:03 | 48.63820 | 33.78830 | 7440 ft | 630 kts | 104° |
| 2026-04-24 15:03 | 48.62403 | 33.85067 | 7567 ft | 624 kts | 114° |
| 2026-04-24 15:04 | 48.60374 | 33.90800 | 7694 ft | 617 kts | 124° |
| 2026-04-24 15:04 | 48.57801 | 33.95862 | 7819 ft | 599 kts | 134° |
| 2026-04-24 15:04 | 48.54874 | 33.99953 | 7934 ft | 542 kts | 144° |
| 2026-04-24 15:04 | 48.51848 | 34.02830 | 8053 ft | 493 kts | 155° |
| 2026-04-24 15:05 | 48.48804 | 34.04786 | 8181 ft | 459 kts | 162° |
| 2026-04-24 15:05 | 48.45868 | 34.06159 | 8303 ft | 426 kts | 167° |
| 2026-04-24 15:05 | 48.43093 | 34.07170 | 8417 ft | 395 kts | 170° |
| 2026-04-24 15:05 | 48.40497 | 34.07960 | 8525 ft | 366 kts | 172° |
| 2026-04-24 15:06 | 48.38080 | 34.08614 | 8634 ft | 341 kts | 173° |
| 2026-04-24 15:06 | 48.35821 | 34.09186 | 8744 ft | 319 kts | 174° |
| 2026-04-24 15:06 | 48.33701 | 34.09707 | 8856 ft | 300 kts | 174° |
| 2026-04-24 15:06 | 48.31703 | 34.10191 | 8968 ft | 282 kts | 175° |
| 2026-04-24 15:07 | 48.29809 | 34.10650 | 9085 ft | 275 kts | 175° |
| 2026-04-24 15:07 | 48.27810 | 34.11120 | 9235 ft | 314 kts | 175° |
| 2026-04-24 15:07 | 48.25386 | 34.11662 | 9397 ft | 395 kts | 174° |
| 2026-04-24 15:07 | 48.22292 | 34.12333 | 9570 ft | 506 kts | 174° |
| 2026-04-24 15:08 | 48.18592 | 34.13144 | 9711 ft | 552 kts | 173° |
| 2026-04-24 15:08 | 48.14931 | 34.13993 | 9823 ft | 507 kts | 173° |
| 2026-04-24 15:08 | 48.11566 | 34.14823 | 9937 ft | 476 kts | 173° |
| 2026-04-24 15:08 | 48.08399 | 34.15640 | 10049 ft | 447 kts | 173° |
| 2026-04-24 15:09 | 48.05437 | 34.16431 | 10158 ft | 419 kts | 172° |
| 2026-04-24 15:09 | 48.02652 | 34.17196 | 10274 ft | 403 kts | 172° |
| 2026-04-24 15:09 | 47.99785 | 34.17984 | 10413 ft | 444 kts | 172° |
| 2026-04-24 15:09 | 47.96454 | 34.18885 | 10556 ft | 527 kts | 172° |
| 2026-04-24 15:10 | 47.92700 | 34.19926 | 10692 ft | 561 kts | 173° |
| 2026-04-24 15:10 | 47.88890 | 34.21013 | 10814 ft | 549 kts | 173° |
| 2026-04-24 15:10 | 47.85331 | 34.22074 | 10923 ft | 492 kts | 173° |
| 2026-04-24 15:10 | 47.82096 | 34.23078 | 11036 ft | 463 kts | 172° |
| 2026-04-24 15:11 | 47.78991 | 34.24061 | 11160 ft | 461 kts | 172° |
| 2026-04-24 15:11 | 47.75691 | 34.25091 | 11401 ft | 510 kts | 172° |
| 2026-04-24 15:11 | 47.72089 | 34.26204 | 11711 ft | 543 kts | 172° |
| 2026-04-24 15:11 | 47.68357 | 34.27377 | 12012 ft | 552 kts | 172° |
| 2026-04-24 15:12 | 47.64598 | 34.28589 | 12313 ft | 554 kts | 171° |
| 2026-04-24 15:12 | 47.57408 | 34.31025 | 12891 ft | 484 kts | 171° |
| 2026-04-24 15:12 | 47.54238 | 34.32167 | 13179 ft | 456 kts | 171° |
| 2026-04-24 15:13 | 47.51143 | 34.33296 | 13481 ft | 472 kts | 170° |
| 2026-04-24 15:13 | 47.47783 | 34.34507 | 13792 ft | 520 kts | 170° |
| 2026-04-24 15:13 | 47.44175 | 34.35809 | 14097 ft | 547 kts | 170° |
| 2026-04-24 15:13 | 47.40420 | 34.37186 | 14400 ft | 564 kts | 169° |
| 2026-04-24 15:14 | 47.36600 | 34.38617 | 14701 ft | 570 kts | 169° |
| 2026-04-24 15:14 | 47.32763 | 34.40092 | 15002 ft | 570 kts | 169° |
| 2026-04-24 15:14 | 47.29013 | 34.41571 | 15297 ft | 542 kts | 168° |
| 2026-04-24 15:14 | 47.25586 | 34.42964 | 15579 ft | 481 kts | 167° |
| 2026-04-24 15:15 | 47.22490 | 34.44272 | 15863 ft | 449 kts | 167° |
| 2026-04-24 15:15 | 47.19585 | 34.45529 | 16146 ft | 422 kts | 167° |
| 2026-04-24 15:15 | 47.16865 | 34.46734 | 16428 ft | 395 kts | 167° |
| 2026-04-24 15:15 | 47.14329 | 34.47879 | 16711 ft | 368 kts | 167° |
| 2026-04-24 15:16 | 47.11982 | 34.48961 | 16991 ft | 340 kts | 167° |
| 2026-04-24 15:16 | 47.09811 | 34.49979 | 17273 ft | 314 kts | 167° |
| 2026-04-24 15:16 | 47.07818 | 34.50928 | 17554 ft | 290 kts | 167° |
| 2026-04-24 15:16 | 47.05982 | 34.51813 | 17834 ft | 267 kts | 167° |
| 2026-04-24 15:17 | 47.04274 | 34.52645 | 18115 ft | 251 kts | 168° |
| 2026-04-24 15:17 | 47.02647 | 34.53438 | 18402 ft | 244 kts | 168° |
| 2026-04-24 15:17 | 47.01052 | 34.54215 | 18695 ft | 241 kts | 168° |
| 2026-04-24 15:17 | 46.99466 | 34.54989 | 18993 ft | 240 kts | 168° |
| 2026-04-24 15:18 | 46.97884 | 34.55766 | 19290 ft | 240 kts | 168° |
| 2026-04-24 15:18 | 46.96296 | 34.56575 | 19592 ft | 242 kts | 167° |
| 2026-04-24 15:18 | 46.94731 | 34.57508 | 19892 ft | 245 kts | 163° |
| 2026-04-24 15:18 | 46.93700 | 34.58225 | 20094 ft | 247 kts | 161° |
| 2026-04-24 15:19 | 46.91680 | 34.59864 | 20496 ft | 252 kts | 157° |
| 2026-04-24 15:19 | 46.90687 | 34.60773 | 20698 ft | 254 kts | 155° |
| 2026-04-24 15:19 | 46.88709 | 34.62735 | 20929 ft | 262 kts | 153° |
| 2026-04-24 15:19 | 46.87717 | 34.63780 | 20973 ft | 265 kts | 152° |
| 2026-04-24 15:20 | 46.86236 | 34.65402 | 20984 ft | 267 kts | 151° |
| 2026-04-24 15:20 | 46.84771 | 34.67058 | 20983 ft | 266 kts | 150° |
| 2026-04-24 15:20 | 46.83322 | 34.68732 | 20981 ft | 265 kts | 149° |
| 2026-04-24 15:20 | 46.81880 | 34.70419 | 20981 ft | 265 kts | 149° |
| 2026-04-24 15:21 | 46.80450 | 34.72104 | 20981 ft | 264 kts | 149° |
| 2026-04-24 15:21 | 46.79023 | 34.73792 | 20982 ft | 264 kts | 149° |
| 2026-04-24 15:21 | 46.77598 | 34.75481 | 20982 ft | 264 kts | 149° |
| 2026-04-24 15:21 | 46.76173 | 34.77172 | 20982 ft | 264 kts | 149° |
| 2026-04-24 15:22 | 46.74746 | 34.78867 | 20982 ft | 264 kts | 149° |
| 2026-04-24 15:22 | 46.73322 | 34.80558 | 20983 ft | 264 kts | 149° |
| 2026-04-24 15:22 | 46.71896 | 34.82252 | 20983 ft | 264 kts | 149° |
| 2026-04-24 15:23 | 46.69045 | 34.85637 | 20983 ft | 264 kts | 149° |
| 2026-04-24 15:23 | 46.66194 | 34.89019 | 20983 ft | 264 kts | 149° |
| 2026-04-24 15:23 | 46.64769 | 34.90707 | 20983 ft | 265 kts | 149° |
| 2026-04-24 15:24 | 46.60482 | 34.95781 | 20984 ft | 265 kts | 149° |
| 2026-04-24 15:25 | 46.57622 | 34.99161 | 20984 ft | 265 kts | 149° |
| 2026-04-24 15:25 | 46.54761 | 35.02535 | 20985 ft | 265 kts | 149° |
| 2026-04-24 15:26 | 46.50472 | 35.07590 | 20986 ft | 265 kts | 149° |
| 2026-04-24 15:27 | 46.46184 | 35.12628 | 20992 ft | 265 kts | 149° |
| 2026-04-24 15:27 | 46.41890 | 35.17664 | 20992 ft | 265 kts | 149° |
| 2026-04-24 15:28 | 46.36165 | 35.24362 | 20993 ft | 265 kts | 149° |
| 2026-04-24 15:29 | 46.33202 | 35.27797 | 21006 ft | 298 kts | 150° |
| 2026-04-24 15:30 | 46.26955 | 35.34787 | 21012 ft | 438 kts | 148° |
| 2026-04-24 15:31 | 46.17588 | 35.45657 | 20994 ft | 433 kts | 146° |
| 2026-04-24 15:32 | 46.08235 | 35.56623 | 20995 ft | 434 kts | 147° |
| 2026-04-24 15:33 | 45.98841 | 35.67529 | 20995 ft | 434 kts | 147° |
| 2026-04-24 15:33 | 45.91777 | 35.75653 | 20996 ft | 434 kts | 147° |
| 2026-04-24 15:34 | 45.87055 | 35.81059 | 20996 ft | 434 kts | 147° |
| 2026-04-24 15:35 | 45.79973 | 35.89139 | 20996 ft | 434 kts | 147° |
| 2026-04-24 15:35 | 45.75243 | 35.94514 | 20996 ft | 434 kts | 147° |
| 2026-04-24 15:35 | 45.72865 | 35.97211 | 20996 ft | 434 kts | 147° |
| 2026-04-24 15:36 | 45.70496 | 35.99895 | 20996 ft | 434 kts | 147° |
| 2026-04-24 15:36 | 45.65767 | 36.05244 | 20996 ft | 434 kts | 147° |
| 2026-04-24 15:36 | 45.63400 | 36.07916 | 20996 ft | 434 kts | 147° |
| 2026-04-24 15:37 | 45.61031 | 36.10587 | 20996 ft | 434 kts | 147° |
| 2026-04-24 15:37 | 45.58655 | 36.13264 | 20996 ft | 434 kts | 147° |
| 2026-04-24 15:37 | 45.56288 | 36.15927 | 20996 ft | 434 kts | 147° |
| 2026-04-24 15:37 | 45.53911 | 36.18598 | 20996 ft | 435 kts | 147° |
| 2026-04-24 15:38 | 45.51542 | 36.21259 | 20996 ft | 435 kts | 147° |
| 2026-04-24 15:38 | 45.49161 | 36.23929 | 20996 ft | 435 kts | 147° |
| 2026-04-24 15:38 | 45.46783 | 36.26593 | 20996 ft | 435 kts | 147° |
| 2026-04-24 15:38 | 45.44401 | 36.29260 | 20995 ft | 435 kts | 147° |
| 2026-04-24 15:39 | 45.42026 | 36.31915 | 20992 ft | 436 kts | 147° |
| 2026-04-24 15:39 | 45.39640 | 36.34580 | 20991 ft | 436 kts | 147° |
| 2026-04-24 15:39 | 45.37258 | 36.37238 | 20991 ft | 436 kts | 147° |
| 2026-04-24 15:39 | 45.34872 | 36.39898 | 20991 ft | 436 kts | 147° |
| 2026-04-24 15:40 | 45.32504 | 36.42610 | 20992 ft | 438 kts | 145° |
| 2026-04-24 15:40 | 45.30184 | 36.45411 | 20992 ft | 439 kts | 144° |
| 2026-04-24 15:40 | 45.27894 | 36.48276 | 20992 ft | 440 kts | 143° |
| 2026-04-24 15:40 | 45.25625 | 36.51179 | 20992 ft | 440 kts | 142° |
| 2026-04-24 15:41 | 45.23360 | 36.54120 | 20992 ft | 441 kts | 142° |
| 2026-04-24 15:41 | 45.21109 | 36.57067 | 20992 ft | 441 kts | 142° |
| 2026-04-24 15:41 | 45.18865 | 36.60020 | 20993 ft | 441 kts | 142° |
| 2026-04-24 15:41 | 45.16612 | 36.62991 | 20994 ft | 442 kts | 141° |
| 2026-04-24 15:42 | 45.14368 | 36.65952 | 20994 ft | 442 kts | 141° |
| 2026-04-24 15:42 | 45.12119 | 36.68920 | 20994 ft | 442 kts | 141° |
| 2026-04-24 15:42 | 45.09871 | 36.71882 | 20994 ft | 442 kts | 141° |
| 2026-04-24 15:42 | 45.07618 | 36.74847 | 20994 ft | 442 kts | 141° |
| 2026-04-24 15:43 | 45.05367 | 36.77804 | 20994 ft | 442 kts | 141° |
| 2026-04-24 15:43 | 45.03111 | 36.80763 | 20993 ft | 443 kts | 141° |
| 2026-04-24 15:43 | 45.00854 | 36.83719 | 20993 ft | 443 kts | 141° |
| 2026-04-24 15:43 | 44.98629 | 36.86628 | 20993 ft | 443 kts | 141° |
| 2026-04-24 15:44 | 44.96372 | 36.89573 | 20993 ft | 443 kts | 141° |
| 2026-04-24 15:44 | 44.94111 | 36.92520 | 20993 ft | 443 kts | 141° |
| 2026-04-24 15:44 | 44.91843 | 36.95471 | 20993 ft | 443 kts | 141° |
| 2026-04-24 15:44 | 44.89576 | 36.98417 | 20993 ft | 443 kts | 141° |
| 2026-04-24 15:45 | 44.87309 | 37.01358 | 20993 ft | 443 kts | 141° |
| 2026-04-24 15:45 | 44.85048 | 37.04288 | 20993 ft | 443 kts | 141° |
| 2026-04-24 15:45 | 44.82777 | 37.07225 | 20993 ft | 443 kts | 141° |
| 2026-04-24 15:45 | 44.80504 | 37.10164 | 20993 ft | 443 kts | 141° |
| 2026-04-24 15:46 | 44.78234 | 37.13093 | 20993 ft | 443 kts | 141° |
| 2026-04-24 15:46 | 44.75962 | 37.16021 | 20993 ft | 444 kts | 141° |
| 2026-04-24 15:46 | 44.73682 | 37.18957 | 20993 ft | 444 kts | 141° |
| 2026-04-24 15:46 | 44.71409 | 37.21878 | 20993 ft | 444 kts | 141° |
| 2026-04-24 15:47 | 44.69129 | 37.24807 | 20994 ft | 444 kts | 141° |
| 2026-04-24 15:47 | 44.66851 | 37.27728 | 20994 ft | 444 kts | 141° |
| 2026-04-24 15:47 | 44.64572 | 37.30649 | 20994 ft | 444 kts | 141° |
| 2026-04-24 15:47 | 44.62294 | 37.33566 | 20994 ft | 444 kts | 141° |
| 2026-04-24 15:48 | 44.60012 | 37.36482 | 20994 ft | 444 kts | 141° |
| 2026-04-24 15:48 | 44.57721 | 37.39407 | 20994 ft | 444 kts | 141° |
| 2026-04-24 15:48 | 44.55441 | 37.42316 | 20994 ft | 444 kts | 141° |
| 2026-04-24 15:48 | 44.53148 | 37.45237 | 20995 ft | 444 kts | 141° |
| 2026-04-24 15:49 | 44.50870 | 37.48136 | 20995 ft | 444 kts | 141° |
| 2026-04-24 15:49 | 44.48579 | 37.51049 | 20995 ft | 445 kts | 141° |
| 2026-04-24 15:49 | 44.46286 | 37.53959 | 20996 ft | 445 kts | 141° |
| 2026-04-24 15:49 | 44.44001 | 37.56858 | 20996 ft | 445 kts | 141° |
| 2026-04-24 15:50 | 44.41703 | 37.59770 | 20997 ft | 445 kts | 141° |
| 2026-04-24 15:50 | 44.39406 | 37.62677 | 20997 ft | 445 kts | 141° |
| 2026-04-24 15:50 | 44.37118 | 37.65570 | 20997 ft | 445 kts | 141° |
| 2026-04-24 15:50 | 44.34818 | 37.68474 | 20998 ft | 445 kts | 140° |
| 2026-04-24 15:51 | 44.32521 | 37.71371 | 20999 ft | 445 kts | 140° |
| 2026-04-24 15:51 | 44.30222 | 37.74268 | 20999 ft | 445 kts | 140° |
| 2026-04-24 15:51 | 44.27929 | 37.77156 | 20999 ft | 445 kts | 140° |
| 2026-04-24 15:51 | 44.25625 | 37.80053 | 21000 ft | 445 kts | 140° |
| 2026-04-24 15:52 | 44.23326 | 37.82941 | 21001 ft | 446 kts | 141° |
| 2026-04-24 15:52 | 44.21026 | 37.85837 | 21003 ft | 444 kts | 141° |
| 2026-04-24 15:52 | 44.18741 | 37.88706 | 21002 ft | 442 kts | 141° |
| 2026-04-24 15:52 | 44.16463 | 37.91562 | 21002 ft | 440 kts | 141° |
| 2026-04-24 15:53 | 44.14184 | 37.94413 | 21003 ft | 440 kts | 141° |
| 2026-04-24 15:53 | 44.11913 | 37.97251 | 21004 ft | 439 kts | 141° |
| 2026-04-24 15:53 | 44.09640 | 38.00088 | 21005 ft | 439 kts | 141° |
| 2026-04-24 15:53 | 44.07373 | 38.02913 | 21005 ft | 439 kts | 141° |
| 2026-04-24 15:54 | 44.05101 | 38.05740 | 21006 ft | 438 kts | 141° |
| 2026-04-24 15:54 | 44.02826 | 38.08569 | 21007 ft | 438 kts | 141° |
| 2026-04-24 15:54 | 44.00554 | 38.11391 | 21009 ft | 438 kts | 141° |
| 2026-04-24 15:54 | 43.98282 | 38.14209 | 21010 ft | 438 kts | 141° |
| 2026-04-24 15:55 | 43.96009 | 38.17026 | 21011 ft | 438 kts | 141° |
| 2026-04-24 15:55 | 43.93737 | 38.19839 | 21012 ft | 438 kts | 141° |
| 2026-04-24 15:55 | 43.91465 | 38.22648 | 21013 ft | 438 kts | 141° |
| 2026-04-24 15:55 | 43.89185 | 38.25464 | 21014 ft | 438 kts | 141° |
| 2026-04-24 15:56 | 43.86907 | 38.28274 | 21015 ft | 439 kts | 141° |
| 2026-04-24 15:56 | 43.84633 | 38.31077 | 21016 ft | 439 kts | 141° |
| 2026-04-24 15:56 | 43.82352 | 38.33886 | 21017 ft | 439 kts | 141° |
| 2026-04-24 15:56 | 43.80075 | 38.36688 | 21018 ft | 439 kts | 141° |
| 2026-04-24 15:57 | 43.77798 | 38.39485 | 21019 ft | 439 kts | 141° |
| 2026-04-24 15:57 | 43.75517 | 38.42285 | 21020 ft | 439 kts | 141° |
| 2026-04-24 15:57 | 43.73990 | 38.44158 | 21021 ft | 439 kts | 141° |
| 2026-04-24 15:57 | 43.70946 | 38.47888 | 21022 ft | 439 kts | 141° |
| 2026-04-24 15:58 | 43.68665 | 38.50678 | 21023 ft | 439 kts | 141° |
| 2026-04-24 15:58 | 43.66373 | 38.53480 | 21024 ft | 439 kts | 141° |
| 2026-04-24 15:58 | 43.64089 | 38.56270 | 21026 ft | 439 kts | 141° |
| 2026-04-24 15:58 | 43.61800 | 38.59061 | 21027 ft | 439 kts | 141° |
| 2026-04-24 15:59 | 43.59511 | 38.61850 | 21028 ft | 439 kts | 141° |
| 2026-04-24 15:59 | 43.57222 | 38.64637 | 21029 ft | 439 kts | 141° |
| 2026-04-24 15:59 | 43.54928 | 38.67426 | 21030 ft | 440 kts | 141° |
| 2026-04-24 15:59 | 43.52638 | 38.70208 | 21031 ft | 440 kts | 141° |
| 2026-04-24 16:00 | 43.50343 | 38.72994 | 21032 ft | 440 kts | 141° |
| 2026-04-24 16:00 | 43.48044 | 38.75781 | 21033 ft | 440 kts | 141° |
| 2026-04-24 16:00 | 43.45750 | 38.78559 | 21034 ft | 440 kts | 141° |
| 2026-04-24 16:00 | 43.43450 | 38.81342 | 21039 ft | 440 kts | 141° |
| 2026-04-24 16:01 | 43.41150 | 38.84122 | 21043 ft | 440 kts | 141° |
| 2026-04-24 16:01 | 43.38852 | 38.86896 | 21044 ft | 440 kts | 141° |
| 2026-04-24 16:01 | 43.36554 | 38.89667 | 21045 ft | 441 kts | 141° |
| 2026-04-24 16:01 | 43.34249 | 38.92444 | 21046 ft | 441 kts | 141° |
| 2026-04-24 16:02 | 43.31944 | 38.95220 | 21046 ft | 441 kts | 141° |
| 2026-04-24 16:02 | 43.29643 | 38.97986 | 21046 ft | 441 kts | 141° |
| 2026-04-24 16:02 | 43.27340 | 39.00751 | 21047 ft | 441 kts | 141° |
| 2026-04-24 16:02 | 43.25032 | 39.03521 | 21047 ft | 441 kts | 141° |
| 2026-04-24 16:03 | 43.22721 | 39.06291 | 21047 ft | 441 kts | 141° |
| 2026-04-24 16:03 | 43.20418 | 39.09049 | 21048 ft | 441 kts | 141° |
| 2026-04-24 16:03 | 43.18102 | 39.11819 | 21048 ft | 441 kts | 141° |
| 2026-04-24 16:03 | 43.15794 | 39.14575 | 21048 ft | 441 kts | 141° |
| 2026-04-24 16:04 | 43.13481 | 39.17337 | 21048 ft | 441 kts | 141° |
| 2026-04-24 16:04 | 43.11169 | 39.20093 | 21047 ft | 441 kts | 141° |
| 2026-04-24 16:04 | 43.08855 | 39.22849 | 21047 ft | 441 kts | 141° |
| 2026-04-24 16:04 | 43.06544 | 39.25600 | 21047 ft | 441 kts | 141° |
| 2026-04-24 16:05 | 43.01912 | 39.31102 | 21048 ft | 441 kts | 141° |
| 2026-04-24 16:05 | 42.99604 | 39.33839 | 21048 ft | 441 kts | 141° |
| 2026-04-24 16:06 | 42.94965 | 39.39333 | 21048 ft | 441 kts | 141° |
| 2026-04-24 16:06 | 42.92647 | 39.42073 | 21048 ft | 441 kts | 141° |